createdAt,value
2023-05-14T00:00:02.864Z,13.9
2023-05-14T00:01:04.065Z,13.8
2023-05-14T00:02:05.240Z,13.8
2023-05-14T00:03:06.607Z,13.8
2023-05-14T00:04:08.550Z,13.8
2023-05-14T00:05:10.478Z,13.8
2023-05-14T00:06:11.731Z,13.8
2023-05-14T00:07:16.445Z,13.8
2023-05-14T00:08:20.989Z,13.7
2023-05-14T00:09:25.209Z,13.7
2023-05-14T00:10:29.768Z,13.7
2023-05-14T00:11:39.777Z,13.7
2023-05-14T00:12:41.154Z,13.7
2023-05-14T00:13:42.544Z,13.7
2023-05-14T00:14:44.015Z,13.6
2023-05-14T00:15:48.420Z,13.6
2023-05-14T00:16:52.698Z,13.6
2023-05-14T00:17:54.171Z,13.6
2023-05-14T00:18:56.045Z,13.6
2023-05-14T00:19:59.956Z,13.6
2023-05-14T00:21:04.259Z,13.5
2023-05-14T00:22:11.135Z,13.5
2023-05-14T00:23:22.297Z,13.5
2023-05-14T00:24:24.038Z,13.5
2023-05-14T00:25:25.554Z,13.5
2023-05-14T00:26:29.231Z,13.4
2023-05-14T00:27:31.036Z,13.4
2023-05-14T00:28:32.838Z,13.4
2023-05-14T00:29:34.652Z,13.4
2023-05-14T00:30:38.883Z,13.4
2023-05-14T00:31:40.456Z,13.3
2023-05-14T00:32:42.360Z,13.3
2023-05-14T00:33:46.879Z,13.3
2023-05-14T00:34:51.484Z,13.3
2023-05-14T00:35:55.506Z,13.3
2023-05-14T00:36:57.140Z,13.3
2023-05-14T00:37:58.696Z,13.3
2023-05-14T00:39:02.507Z,13.2
2023-05-14T00:40:07.018Z,13.2
2023-05-14T00:41:08.594Z,13.2
2023-05-14T00:42:12.996Z,13.2
2023-05-14T00:43:14.625Z,13.2
2023-05-14T00:44:15.929Z,13.1
2023-05-14T00:45:17.430Z,13.1
2023-05-14T00:46:21.927Z,13.1
2023-05-14T00:47:23.634Z,13.1
2023-05-14T00:48:27.714Z,13.1
2023-05-14T00:49:31.698Z,13.1
2023-05-14T00:50:36.243Z,13.1
2023-05-14T00:51:37.637Z,13
2023-05-14T00:52:39.285Z,13
2023-05-14T00:53:43.115Z,13
2023-05-14T00:54:44.618Z,13
2023-05-14T00:55:46.201Z,13
2023-05-14T00:56:47.727Z,13
2023-05-14T00:57:49.280Z,13
2023-05-14T00:58:51.160Z,12.9
2023-05-14T00:59:52.782Z,12.9
2023-05-14T01:00:54.360Z,12.9
2023-05-14T01:01:55.964Z,12.9
2023-05-14T01:02:57.527Z,12.9
2023-05-14T01:04:02.355Z,12.9
2023-05-14T01:05:06.914Z,12.9
2023-05-14T01:06:08.721Z,12.9
2023-05-14T01:07:10.257Z,12.8
2023-05-14T01:08:12.004Z,12.8
2023-05-14T01:09:13.773Z,12.8
2023-05-14T01:10:15.583Z,12.8
2023-05-14T01:11:16.888Z,12.8
2023-05-14T01:12:18.735Z,12.8
2023-05-14T01:13:20.603Z,12.7
2023-05-14T01:14:22.166Z,12.7
2023-05-14T01:15:23.710Z,12.7
2023-05-14T01:16:25.227Z,12.7
2023-05-14T01:17:26.829Z,12.7
2023-05-14T01:18:28.291Z,12.7
2023-05-14T01:19:29.527Z,12.7
2023-05-14T01:20:30.654Z,12.7
2023-05-14T01:21:31.820Z,12.6
2023-05-14T01:22:33.026Z,12.6
2023-05-14T01:23:34.184Z,12.6
2023-05-14T01:24:35.357Z,12.6
2023-05-14T01:25:36.532Z,12.6
2023-05-14T01:26:37.725Z,12.6
2023-05-14T01:27:38.884Z,12.6
2023-05-14T01:28:40.038Z,12.6
2023-05-14T01:29:41.195Z,12.5
2023-05-14T01:30:42.483Z,12.5
2023-05-14T01:31:43.847Z,12.5
2023-05-14T01:32:45.173Z,12.5
2023-05-14T01:33:46.349Z,12.5
2023-05-14T01:34:47.577Z,12.4
2023-05-14T01:35:48.742Z,12.4
2023-05-14T01:36:49.923Z,12.4
2023-05-14T01:37:51.185Z,12.4
2023-05-14T01:38:52.361Z,12.4
2023-05-14T01:39:53.596Z,12.4
2023-05-14T01:40:54.726Z,12.3
2023-05-14T01:41:55.888Z,12.3
2023-05-14T01:42:57.064Z,12.3
2023-05-14T01:43:58.263Z,12.3
2023-05-14T01:44:59.548Z,12.3
2023-05-14T01:46:00.752Z,12.3
2023-05-14T01:47:01.934Z,12.3
2023-05-14T01:48:03.169Z,12.2
2023-05-14T01:49:04.456Z,12.2
2023-05-14T01:50:05.627Z,12.2
2023-05-14T01:51:06.904Z,12.2
2023-05-14T01:52:08.069Z,12.2
2023-05-14T01:53:09.265Z,12.2
2023-05-14T01:54:10.451Z,12.1
2023-05-14T01:55:11.587Z,12.1
2023-05-14T01:56:12.751Z,12.1
2023-05-14T01:57:13.948Z,12.1
2023-05-14T01:58:15.118Z,12.1
2023-05-14T01:59:16.291Z,12.1
2023-05-14T02:00:17.468Z,12.1
2023-05-14T02:01:18.626Z,12.1
2023-05-14T02:02:19.841Z,12.1
2023-05-14T02:03:21.021Z,12
2023-05-14T02:04:22.187Z,12
2023-05-14T02:05:23.442Z,12
2023-05-14T02:06:24.615Z,12
2023-05-14T02:07:25.785Z,12
2023-05-14T02:08:26.965Z,12
2023-05-14T02:09:28.201Z,12
2023-05-14T02:10:29.344Z,12
2023-05-14T02:11:30.513Z,12
2023-05-14T02:12:31.681Z,11.9
2023-05-14T02:13:32.870Z,11.9
2023-05-14T02:14:34.009Z,11.9
2023-05-14T02:15:35.206Z,11.9
2023-05-14T02:16:36.503Z,11.9
2023-05-14T02:17:37.740Z,11.9
2023-05-14T02:18:39.126Z,11.9
2023-05-14T02:19:40.277Z,11.9
2023-05-14T02:20:41.446Z,11.9
2023-05-14T02:21:42.639Z,11.9
2023-05-14T02:22:43.782Z,11.9
2023-05-14T02:23:44.970Z,11.9
2023-05-14T02:24:46.136Z,11.9
2023-05-14T02:25:47.278Z,11.8
2023-05-14T02:26:48.454Z,11.8
2023-05-14T02:27:49.638Z,11.8
2023-05-14T02:28:50.788Z,11.8
2023-05-14T02:29:52.057Z,11.8
2023-05-14T02:30:53.220Z,11.8
2023-05-14T02:31:54.491Z,11.8
2023-05-14T02:32:55.838Z,11.8
2023-05-14T02:33:57.167Z,11.8
2023-05-14T02:34:58.315Z,11.8
2023-05-14T02:35:59.482Z,11.8
2023-05-14T02:37:00.654Z,11.8
2023-05-14T02:38:01.820Z,11.8
2023-05-14T02:39:02.984Z,11.8
2023-05-14T02:40:04.213Z,11.8
2023-05-14T02:41:05.398Z,11.7
2023-05-14T02:42:06.578Z,11.7
2023-05-14T02:43:07.726Z,11.7
2023-05-14T02:44:08.904Z,11.7
2023-05-14T02:45:10.068Z,11.7
2023-05-14T02:46:11.234Z,11.7
2023-05-14T02:47:12.487Z,11.7
2023-05-14T02:48:13.754Z,11.7
2023-05-14T02:49:14.990Z,11.7
2023-05-14T02:50:16.151Z,11.7
2023-05-14T02:51:17.322Z,11.6
2023-05-14T02:52:18.483Z,11.6
2023-05-14T02:53:19.651Z,11.6
2023-05-14T02:54:20.825Z,11.6
2023-05-14T02:55:22.005Z,11.6
2023-05-14T02:56:23.148Z,11.6
2023-05-14T02:57:24.317Z,11.6
2023-05-14T02:58:28.182Z,11.6
2023-05-14T02:59:29.707Z,11.6
2023-05-14T03:00:32.151Z,11.5
2023-05-14T03:01:34.702Z,11.5
2023-05-14T03:02:37.461Z,11.5
2023-05-14T03:03:40.048Z,11.5
2023-05-14T03:04:42.677Z,11.5
2023-05-14T03:05:43.830Z,11.5
2023-05-14T03:06:44.998Z,11.5
2023-05-14T03:07:46.182Z,11.5
2023-05-14T03:08:47.329Z,11.5
2023-05-14T03:09:48.507Z,11.5
2023-05-14T03:10:49.692Z,11.5
2023-05-14T03:11:50.834Z,11.4
2023-05-14T03:12:52.006Z,11.4
2023-05-14T03:13:53.169Z,11.4
2023-05-14T03:14:54.340Z,11.4
2023-05-14T03:15:55.567Z,11.4
2023-05-14T03:16:56.742Z,11.4
2023-05-14T03:17:58.190Z,11.4
2023-05-14T03:18:59.498Z,11.4
2023-05-14T03:20:00.744Z,11.4
2023-05-14T03:21:01.881Z,11.4
2023-05-14T03:22:03.061Z,11.4
2023-05-14T03:23:04.213Z,11.4
2023-05-14T03:24:05.388Z,11.4
2023-05-14T03:25:09.400Z,11.4
2023-05-14T03:26:19.918Z,11.4
2023-05-14T03:27:29.150Z,11.4
2023-05-14T03:28:33.273Z,11.4
2023-05-14T03:29:37.491Z,11.4
2023-05-14T03:30:38.690Z,11.4
2023-05-14T03:32:20.443Z,11.4
2023-05-14T03:33:30.351Z,11.4
2023-05-14T03:34:34.208Z,11.4
2023-05-14T03:35:46.017Z,11.4
2023-05-14T03:36:52.728Z,11.4
2023-05-14T03:37:56.082Z,11.4
2023-05-14T03:38:59.771Z,11.4
2023-05-14T03:40:06.916Z,11.4
2023-05-14T03:41:08.069Z,11.5
2023-05-14T03:42:09.301Z,11.5
2023-05-14T03:46:41.223Z,11.5
2023-05-14T03:47:42.477Z,11.5
2023-05-14T03:48:43.775Z,11.5
2023-05-14T03:49:48.140Z,11.5
2023-05-14T03:51:55.358Z,11.5
2023-05-14T03:53:06.608Z,11.5
2023-05-14T03:54:07.779Z,11.5
2023-05-14T03:55:11.112Z,11.6
2023-05-14T03:56:24.138Z,11.6
2023-05-14T03:58:41.623Z,11.6
2023-05-14T03:59:54.408Z,11.6
2023-05-14T04:00:55.600Z,11.6
2023-05-14T04:03:04.815Z,11.6
2023-05-14T04:04:09.116Z,11.6
2023-05-14T04:05:58.060Z,11.6
2023-05-14T04:07:02.344Z,11.7
2023-05-14T04:08:03.502Z,11.7
2023-05-14T04:09:10.645Z,11.7
2023-05-14T04:10:14.519Z,11.7
2023-05-14T04:11:27.129Z,11.7
2023-05-14T04:12:31.718Z,11.7
2023-05-14T04:13:32.885Z,11.7
2023-05-14T04:14:43.083Z,11.7
2023-05-14T04:15:47.171Z,11.7
2023-05-14T04:16:53.587Z,11.7
2023-05-14T04:17:57.689Z,11.7
2023-05-14T04:19:01.163Z,11.8
2023-05-14T04:20:07.737Z,11.8
2023-05-14T04:21:16.069Z,11.8
2023-05-14T04:22:37.925Z,11.8
2023-05-14T04:23:41.962Z,11.8
2023-05-14T04:24:43.191Z,11.8
2023-05-14T04:25:44.343Z,11.8
2023-05-14T04:26:48.637Z,11.8
2023-05-14T04:27:58.742Z,11.8
2023-05-14T04:29:05.333Z,11.8
2023-05-14T04:30:09.561Z,11.8
2023-05-14T04:31:16.497Z,11.8
2023-05-14T04:32:20.012Z,11.9
2023-05-14T04:33:51.806Z,11.9
2023-05-14T04:34:55.869Z,11.9
2023-05-14T04:36:04.835Z,11.9
2023-05-14T04:37:11.787Z,11.9
2023-05-14T04:39:23.742Z,11.9
2023-05-14T04:40:30.355Z,12
2023-05-14T04:41:44.614Z,12
2023-05-14T04:42:45.802Z,12
2023-05-14T04:43:47.076Z,12
2023-05-14T04:44:50.374Z,12
2023-05-14T04:47:36.016Z,12.1
2023-05-14T04:48:40.040Z,12.1
2023-05-14T04:49:41.240Z,12.1
2023-05-14T04:50:51.263Z,12.1
2023-05-14T04:51:58.168Z,12.1
2023-05-14T04:52:59.343Z,12.2
2023-05-14T04:54:04.829Z,12.2
2023-05-14T04:55:09.099Z,12.2
2023-05-14T04:56:10.238Z,12.2
2023-05-14T04:58:25.667Z,12.3
2023-05-14T04:59:34.997Z,12.3
2023-05-14T05:00:36.235Z,12.3
2023-05-14T05:02:56.801Z,12.4
2023-05-14T05:04:04.256Z,12.4
2023-05-14T05:05:10.773Z,12.4
2023-05-14T05:06:11.907Z,12.4
2023-05-14T05:07:13.083Z,12.5
2023-05-14T05:08:17.111Z,12.5
2023-05-14T05:09:23.926Z,12.5
2023-05-14T05:10:27.977Z,12.5
2023-05-14T05:12:43.006Z,12.6
2023-05-14T05:13:44.204Z,12.6
2023-05-14T05:14:50.168Z,12.7
2023-05-14T05:15:56.333Z,12.7
2023-05-14T05:16:57.668Z,12.7
2023-05-14T05:18:50.130Z,12.8
2023-05-14T05:19:51.385Z,12.8
2023-05-14T05:20:52.554Z,12.9
2023-05-14T05:21:56.363Z,12.9
2023-05-14T05:22:57.526Z,12.9
2023-05-14T05:23:58.777Z,13
2023-05-14T05:25:08.295Z,13
2023-05-14T05:26:13.525Z,13
2023-05-14T05:27:35.722Z,13.1
2023-05-14T05:28:44.194Z,13.1
2023-05-14T05:29:45.322Z,13.2
2023-05-14T05:30:52.625Z,13.2
2023-05-14T05:32:14.336Z,13.2
2023-05-14T05:33:18.313Z,13.3
2023-05-14T05:34:22.004Z,13.3
2023-05-14T05:35:25.782Z,13.4
2023-05-14T05:36:29.671Z,13.4
2023-05-14T05:37:38.082Z,13.4
2023-05-14T05:38:44.071Z,13.5
2023-05-14T05:39:47.847Z,13.5
2023-05-14T05:40:55.096Z,13.6
2023-05-14T05:41:56.319Z,13.6
2023-05-14T05:43:00.211Z,13.7
2023-05-14T05:44:04.362Z,13.7
2023-05-14T05:45:16.286Z,13.7
2023-05-14T05:46:38.018Z,13.8
2023-05-14T05:49:13.373Z,13.9
2023-05-14T05:50:14.745Z,13.9
2023-05-14T05:51:20.455Z,13.9
2023-05-14T05:52:32.155Z,14
2023-05-14T05:53:38.540Z,14
2023-05-14T05:54:53.023Z,14.1
2023-05-14T05:55:59.371Z,14.1
2023-05-14T05:58:12.535Z,14.2
2023-05-14T05:59:13.687Z,14.2
2023-05-14T06:00:14.882Z,14.3
2023-05-14T06:01:18.816Z,14.3
2023-05-14T06:02:23.083Z,14.4
2023-05-14T06:03:27.179Z,14.4
2023-05-14T06:04:51.601Z,14.5
2023-05-14T06:06:01.491Z,14.5
2023-05-14T06:07:02.671Z,14.6
2023-05-14T06:08:09.361Z,14.6
2023-05-14T06:09:14.681Z,14.7
2023-05-14T06:10:18.768Z,14.7
2023-05-14T06:11:26.236Z,14.8
2023-05-14T06:12:30.086Z,14.8
2023-05-14T06:13:39.497Z,14.9
2023-05-14T06:15:46.697Z,15
2023-05-14T06:17:14.087Z,15.1
2023-05-14T06:18:20.815Z,15.1
2023-05-14T06:19:34.332Z,15.2
2023-05-14T06:20:35.569Z,15.3
2023-05-14T06:21:42.744Z,15.3
2023-05-14T06:22:43.938Z,15.4
2023-05-14T06:23:45.144Z,15.5
2023-05-14T06:24:49.166Z,15.5
2023-05-14T06:25:52.523Z,15.6
2023-05-14T06:27:07.723Z,15.7
2023-05-14T06:28:14.855Z,15.8
2023-05-14T06:29:22.018Z,15.9
2023-05-14T06:30:30.830Z,16
2023-05-14T06:31:32.009Z,16.1
2023-05-14T06:32:33.521Z,16.2
2023-05-14T06:33:45.120Z,16.3
2023-05-14T06:34:51.809Z,16.4
2023-05-14T06:35:52.980Z,16.5
2023-05-14T06:36:57.760Z,16.6
2023-05-14T06:38:16.447Z,16.7
2023-05-14T06:39:20.424Z,16.8
2023-05-14T06:40:24.202Z,16.9
2023-05-14T06:41:31.577Z,17
2023-05-14T06:43:51.769Z,17.2
2023-05-14T06:44:52.905Z,17.3
2023-05-14T06:45:54.124Z,17.4
2023-05-14T06:47:00.496Z,17.4
2023-05-14T06:48:06.726Z,17.6
2023-05-14T06:49:14.281Z,17.7
2023-05-14T06:50:21.198Z,17.8
2023-05-14T06:51:23.184Z,18
2023-05-14T06:52:31.940Z,18.1
2023-05-14T06:53:36.104Z,18.1
2023-05-14T06:54:40.289Z,18.2
2023-05-14T06:56:13.226Z,18.4
2023-05-14T06:57:14.558Z,18.5
2023-05-14T06:58:18.266Z,18.6
2023-05-14T06:59:32.250Z,18.7
2023-05-14T07:00:33.429Z,18.8
2023-05-14T07:01:54.967Z,18.9
2023-05-14T07:03:03.732Z,19.1
2023-05-14T07:04:16.379Z,19.2
2023-05-14T07:05:34.870Z,19.4
2023-05-14T07:07:42.124Z,19.6
2023-05-14T07:08:43.269Z,19.7
2023-05-14T07:09:44.437Z,19.8
2023-05-14T07:10:48.389Z,19.9
2023-05-14T07:11:52.355Z,20
2023-05-14T07:13:00.749Z,20.1
2023-05-14T07:14:10.633Z,20.2
2023-05-14T07:15:20.640Z,20.4
2023-05-14T07:16:24.400Z,20.5
2023-05-14T07:17:31.332Z,20.7
2023-05-14T07:18:32.548Z,20.8
2023-05-14T07:19:38.736Z,21
2023-05-14T07:21:48.369Z,21.2
2023-05-14T07:22:55.126Z,21.4
2023-05-14T07:24:06.188Z,21.6
2023-05-14T07:25:10.360Z,21.7
2023-05-14T07:26:22.623Z,21.9
2023-05-14T07:27:31.387Z,22.1
2023-05-14T07:28:35.726Z,22.3
2023-05-14T07:29:36.928Z,22.4
2023-05-14T07:30:38.101Z,22.6
2023-05-14T07:31:39.355Z,22.8
2023-05-14T07:32:43.407Z,22.9
2023-05-14T07:33:46.982Z,22.8
2023-05-14T07:34:48.193Z,22.7
2023-05-14T07:35:52.403Z,22.8
2023-05-14T07:37:17.394Z,22.7
2023-05-14T07:38:24.094Z,22.7
2023-05-14T07:39:27.837Z,22.6
2023-05-14T07:40:49.433Z,22.6
2023-05-14T07:41:53.808Z,22.6
2023-05-14T07:42:59.780Z,22.6
2023-05-14T07:44:03.527Z,22.6
2023-05-14T07:45:10.152Z,22.6
2023-05-14T07:46:17.247Z,22.6
2023-05-14T07:47:25.878Z,22.6
2023-05-14T07:48:33.051Z,22.6
2023-05-14T07:49:37.252Z,22.6
2023-05-14T07:51:47.134Z,22.6
2023-05-14T07:52:53.962Z,22.5
2023-05-14T07:53:58.005Z,22.6
2023-05-14T07:55:02.060Z,22.6
2023-05-14T07:56:14.512Z,22.6
2023-05-14T07:58:53.268Z,22.6
2023-05-14T07:59:54.550Z,22.6
2023-05-14T08:01:08.172Z,22.6
2023-05-14T08:02:14.192Z,22.6
2023-05-14T08:03:18.441Z,22.6
2023-05-14T08:04:25.477Z,22.6
2023-05-14T08:08:15.960Z,22.6
2023-05-14T08:09:20.170Z,22.6
2023-05-14T08:50:08.282Z,29.5
2023-05-14T08:51:14.553Z,29.5
2023-05-14T08:52:22.597Z,29.6
2023-05-14T08:53:23.810Z,29.7
2023-05-14T08:54:24.981Z,29.7
2023-05-14T08:55:26.156Z,29.6
2023-05-14T08:56:27.321Z,29.6
2023-05-14T08:57:28.504Z,29.5
2023-05-14T08:58:29.672Z,29.5
2023-05-14T08:59:30.870Z,29.4
2023-05-14T09:00:32.034Z,29.4
2023-05-14T09:01:33.193Z,29.4
2023-05-14T09:02:34.495Z,29.3
2023-05-14T09:03:35.982Z,29.3
2023-05-14T09:04:37.218Z,29.2
2023-05-14T09:05:38.398Z,29.2
2023-05-14T09:06:39.546Z,29.1
2023-05-14T09:07:40.728Z,29.1
2023-05-14T09:08:41.873Z,29.1
2023-05-14T09:09:43.038Z,29
2023-05-14T09:10:44.203Z,29
2023-05-14T09:11:45.374Z,28.9
2023-05-14T09:12:46.561Z,28.9
2023-05-14T09:13:47.704Z,28.8
2023-05-14T09:14:48.869Z,28.8
2023-05-14T09:15:50.042Z,28.7
2023-05-14T09:16:51.754Z,28.7
2023-05-14T09:17:53.309Z,28.6
2023-05-14T09:18:54.584Z,28.6
2023-05-14T09:19:55.767Z,28.6
2023-05-14T09:20:56.944Z,28.6
2023-05-14T09:21:58.093Z,28.7
2023-05-14T09:22:59.269Z,28.7
2023-05-14T09:24:00.419Z,28.8
2023-05-14T09:25:01.583Z,28.9
2023-05-14T09:26:02.752Z,28.9
2023-05-14T09:27:03.923Z,28.9
2023-05-14T09:28:05.118Z,29
2023-05-14T09:29:06.254Z,29
2023-05-14T09:30:07.431Z,29
2023-05-14T09:31:08.602Z,29
2023-05-14T09:32:09.761Z,29
2023-05-14T09:33:10.971Z,29
2023-05-14T09:34:12.128Z,29
2023-05-14T09:35:13.303Z,29
2023-05-14T09:36:14.491Z,29
2023-05-14T09:37:15.634Z,29.1
2023-05-14T09:38:16.818Z,29.1
2023-05-14T09:39:17.965Z,29.1
2023-05-14T09:40:19.154Z,29.1
2023-05-14T09:41:20.297Z,29.2
2023-05-14T09:42:21.465Z,29.2
2023-05-14T09:43:22.649Z,29.3
2023-05-14T09:44:23.801Z,29.5
2023-05-14T09:45:24.965Z,29.6
2023-05-14T09:46:26.132Z,29.7
2023-05-14T09:47:27.366Z,29.8
2023-05-14T09:48:28.810Z,29.8
2023-05-14T09:49:30.005Z,30
2023-05-14T09:50:31.171Z,30
2023-05-14T09:51:32.378Z,30.2
2023-05-14T09:52:33.510Z,30.3
2023-05-14T09:53:34.678Z,30.4
2023-05-14T09:54:35.833Z,30.5
2023-05-14T09:55:37.009Z,30.5
2023-05-14T09:56:38.185Z,30.6
2023-05-14T09:57:39.342Z,30.6
2023-05-14T09:58:40.556Z,30.6
2023-05-14T09:59:41.688Z,30.8
2023-05-14T10:00:42.851Z,30.8
2023-05-14T10:01:44.054Z,31
2023-05-14T10:02:45.653Z,31
2023-05-14T10:03:46.816Z,31.1
2023-05-14T10:04:48.034Z,31.1
2023-05-14T10:05:49.337Z,31.2
2023-05-14T10:06:50.525Z,31.3
2023-05-14T10:07:51.695Z,31.3
2023-05-14T10:08:52.873Z,31.5
2023-05-14T10:09:54.007Z,31.6
2023-05-14T10:10:55.923Z,31.8
2023-05-14T10:11:57.090Z,31.9
2023-05-14T10:12:58.278Z,31.6
2023-05-14T10:13:59.452Z,31.5
2023-05-14T10:15:00.609Z,31.4
2023-05-14T10:16:01.791Z,31.6
2023-05-14T10:17:03.008Z,31.4
2023-05-14T10:18:04.249Z,31.2
2023-05-14T10:19:05.457Z,31.1
2023-05-14T10:20:06.790Z,31
2023-05-14T10:21:07.954Z,30.9
2023-05-14T10:22:09.150Z,30.8
2023-05-14T10:23:10.288Z,30.9
2023-05-14T10:24:11.473Z,30.9
2023-05-14T10:25:12.620Z,30.7
2023-05-14T10:26:13.800Z,30.6
2023-05-14T10:27:14.971Z,30.9
2023-05-14T10:28:16.134Z,30.6
2023-05-14T10:29:17.324Z,30.7
2023-05-14T10:30:18.460Z,31.1
2023-05-14T10:31:19.806Z,31.3
2023-05-14T10:32:21.194Z,31.4
2023-05-14T10:33:22.373Z,31.1
2023-05-14T10:34:23.560Z,30.9
2023-05-14T10:35:24.701Z,30.8
2023-05-14T10:36:25.876Z,30.7
2023-05-14T10:37:27.171Z,30.7
2023-05-14T10:38:28.344Z,30.6
2023-05-14T10:39:29.586Z,30.5
2023-05-14T10:40:30.751Z,30.4
2023-05-14T10:41:34.867Z,30.3
2023-05-14T10:42:36.107Z,30.2
2023-05-14T10:43:37.404Z,30.1
2023-05-14T10:44:38.573Z,30
2023-05-14T10:45:39.915Z,30.5
2023-05-14T10:46:41.081Z,30.8
2023-05-14T10:47:42.348Z,30.6
2023-05-14T10:48:43.563Z,30.9
2023-05-14T10:49:45.234Z,31.2
2023-05-14T10:50:46.408Z,31.3
2023-05-14T10:51:47.538Z,31.5
2023-05-14T10:52:48.734Z,31.4
2023-05-14T10:53:49.951Z,31.4
2023-05-14T10:54:51.237Z,31.6
2023-05-14T10:55:52.365Z,31.3
2023-05-14T10:56:53.527Z,31.2
2023-05-14T10:57:54.718Z,31.5
2023-05-14T10:58:55.870Z,31.7
2023-05-14T10:59:57.072Z,32
2023-05-14T11:00:58.217Z,32.2
2023-05-14T11:01:59.471Z,32.4
2023-05-14T11:03:00.962Z,32.6
2023-05-14T11:04:02.254Z,32.9
2023-05-14T11:05:06.319Z,33.1
2023-05-14T11:06:07.456Z,33.3
2023-05-14T11:07:08.623Z,33.5
2023-05-14T11:08:09.817Z,33.8
2023-05-14T11:09:10.986Z,34
2023-05-14T11:10:12.176Z,34.2
2023-05-14T11:11:13.384Z,34.2
2023-05-14T11:12:14.593Z,34.3
2023-05-14T11:13:15.780Z,34.4
2023-05-14T11:14:19.532Z,34.7
2023-05-14T11:15:20.691Z,34.8
2023-05-14T11:16:23.648Z,34.8
2023-05-14T11:17:25.330Z,35
2023-05-14T11:18:26.499Z,34.7
2023-05-14T11:19:27.651Z,34.3
2023-05-14T11:20:28.829Z,34.4
2023-05-14T11:21:30.048Z,34.5
2023-05-14T11:22:31.278Z,34.6
2023-05-14T11:23:32.472Z,34.6
2023-05-14T11:24:33.611Z,34.6
2023-05-14T11:25:34.794Z,34.6
2023-05-14T11:26:35.964Z,34.6
2023-05-14T11:27:37.130Z,34.6
2023-05-14T11:28:38.299Z,34.6
2023-05-14T11:29:39.463Z,34.6
2023-05-14T11:30:40.668Z,34.6
2023-05-14T11:31:41.851Z,34.6
2023-05-14T11:32:43.212Z,34.6
2023-05-14T11:33:44.375Z,34.6
2023-05-14T11:34:45.544Z,34.6
2023-05-14T11:35:46.752Z,34.6
2023-05-14T11:36:47.873Z,34.6
2023-05-14T11:37:49.069Z,34.6
2023-05-14T11:38:50.236Z,34.6
2023-05-14T11:39:51.390Z,34.6
2023-05-14T11:40:52.579Z,34.5
2023-05-14T11:41:53.737Z,34.5
2023-05-14T11:42:54.920Z,34.5
2023-05-14T11:43:56.097Z,34.5
2023-05-14T11:44:57.649Z,34.6
2023-05-14T11:45:58.859Z,34.6
2023-05-14T11:47:00.150Z,34.6
2023-05-14T11:48:01.411Z,34.6
2023-05-14T11:49:02.675Z,34.6
2023-05-14T11:50:03.826Z,34.7
2023-05-14T11:51:05.037Z,34.7
2023-05-14T11:52:06.176Z,34.7
2023-05-14T11:53:07.356Z,34.7
2023-05-14T11:54:08.518Z,34.7
2023-05-14T11:55:09.656Z,34.7
2023-05-14T11:56:10.848Z,34.8
2023-05-14T11:57:11.995Z,34.8
2023-05-14T11:58:13.153Z,34.5
2023-05-14T11:59:14.324Z,34.1
2023-05-14T12:00:15.494Z,33.9
2023-05-14T12:01:16.941Z,34.1
2023-05-14T12:02:18.183Z,34.3
2023-05-14T12:03:19.587Z,33.9
2023-05-14T12:04:21.334Z,33.9
2023-05-14T12:05:22.583Z,34.1
2023-05-14T12:06:23.803Z,33.7
2023-05-14T12:07:24.951Z,33.5
2023-05-14T12:08:26.121Z,33.3
2023-05-14T12:09:27.306Z,33.2
2023-05-14T12:10:28.445Z,32.9
2023-05-14T12:11:29.633Z,32.8
2023-05-14T12:12:30.781Z,32.6
2023-05-14T12:13:31.950Z,32.4
2023-05-14T12:14:33.115Z,32.1
2023-05-14T12:15:34.271Z,31.9
2023-05-14T12:16:37.727Z,31.7
2023-05-14T12:17:39.529Z,31.5
2023-05-14T12:18:40.836Z,31.3
2023-05-14T12:19:42.432Z,31.2
2023-05-14T12:21:42.341Z,30.8
2023-05-14T12:22:43.470Z,30.6
2023-05-14T12:23:44.635Z,30.5
2023-05-14T12:24:45.821Z,30.3
2023-05-14T12:25:47.013Z,30.2
2023-05-14T12:26:48.161Z,30
2023-05-14T12:27:49.313Z,30
2023-05-14T12:28:50.474Z,30.2
2023-05-14T12:29:51.641Z,30.1
2023-05-14T12:30:52.808Z,29.9
2023-05-14T12:31:54.086Z,29.8
2023-05-14T12:32:55.419Z,29.6
2023-05-14T12:33:56.638Z,29.5
2023-05-14T12:34:57.807Z,29.3
2023-05-14T12:36:00.636Z,29.2
2023-05-14T12:37:22.909Z,29.1
2023-05-14T12:38:24.048Z,29
2023-05-14T12:39:25.214Z,28.9
2023-05-14T12:40:26.486Z,28.8
2023-05-14T12:41:27.846Z,28.8
2023-05-14T12:42:29.057Z,28.7
2023-05-14T12:43:30.190Z,28.6
2023-05-14T12:44:31.398Z,28.5
2023-05-14T12:45:32.572Z,28.4
2023-05-14T12:46:33.762Z,28.3
2023-05-14T12:47:35.219Z,28.2
2023-05-14T12:48:36.922Z,28.1
2023-05-14T12:49:38.105Z,28.1
2023-05-14T12:50:39.241Z,28.3
2023-05-14T12:51:40.407Z,28.2
2023-05-14T12:52:41.644Z,28.1
2023-05-14T12:53:42.784Z,28.1
2023-05-14T12:54:43.956Z,28.1
2023-05-14T12:55:45.154Z,28.1
2023-05-14T12:56:46.323Z,28
2023-05-14T12:57:47.456Z,28
2023-05-14T12:58:48.804Z,28
2023-05-14T12:59:49.975Z,27.9
2023-05-14T13:00:51.169Z,28
2023-05-14T13:01:52.504Z,28.1
2023-05-14T13:02:53.705Z,28.3
2023-05-14T13:03:54.878Z,28.3
2023-05-14T13:04:56.141Z,28.2
2023-05-14T13:05:57.305Z,28.1
2023-05-14T13:06:58.473Z,28.4
2023-05-14T13:07:59.641Z,28.6
2023-05-14T13:09:00.832Z,28.8
2023-05-14T13:10:01.991Z,28.8
2023-05-14T13:11:03.165Z,28.6
2023-05-14T13:12:04.308Z,28.5
2023-05-14T13:13:05.482Z,28.3
2023-05-14T13:14:06.649Z,28.3
2023-05-14T13:15:07.976Z,28.5
2023-05-14T13:16:09.226Z,28.6
2023-05-14T13:17:10.444Z,28.7
2023-05-14T13:18:11.606Z,28.8
2023-05-14T13:19:12.814Z,28.7
2023-05-14T13:20:14.388Z,28.5
2023-05-14T13:21:15.557Z,28.5
2023-05-14T13:22:16.741Z,28.3
2023-05-14T13:23:17.888Z,28.3
2023-05-14T13:24:19.056Z,28.3
2023-05-14T13:25:20.221Z,28.3
2023-05-14T13:26:21.410Z,28.4
2023-05-14T13:27:22.560Z,28.4
2023-05-14T13:28:23.724Z,28.4
2023-05-14T13:29:24.893Z,28.6
2023-05-14T13:30:26.060Z,28.8
2023-05-14T13:31:27.286Z,28.8
2023-05-14T13:32:28.673Z,28.9
2023-05-14T13:33:29.879Z,28.9
2023-05-14T13:34:31.034Z,28.7
2023-05-14T13:35:32.252Z,28.6
2023-05-14T13:36:33.390Z,28.4
2023-05-14T13:37:34.546Z,28.3
2023-05-14T13:38:35.734Z,28.2
2023-05-14T13:39:36.880Z,28.1
2023-05-14T13:40:38.041Z,27.9
2023-05-14T13:41:39.275Z,27.8
2023-05-14T13:42:40.411Z,27.7
2023-05-14T13:43:41.581Z,27.6
2023-05-14T13:44:42.734Z,27.5
2023-05-14T13:45:43.902Z,27.7
2023-05-14T13:46:45.090Z,27.6
2023-05-14T13:47:46.403Z,27.5
2023-05-14T13:48:49.967Z,27.5
2023-05-14T13:49:51.117Z,27.6
2023-05-14T13:50:52.284Z,27.6
2023-05-14T13:51:53.454Z,27.5
2023-05-14T13:52:54.613Z,27.4
2023-05-14T13:53:56.028Z,27.3
2023-05-14T13:54:57.636Z,27.3
2023-05-14T13:55:58.804Z,27.3
2023-05-14T13:56:59.986Z,27.3
2023-05-14T13:58:01.170Z,27.3
2023-05-14T13:59:02.337Z,27.3
2023-05-14T14:00:03.492Z,27.4
2023-05-14T14:01:04.751Z,27.5
2023-05-14T14:02:05.928Z,27.6
2023-05-14T14:03:07.346Z,27.6
2023-05-14T14:04:08.564Z,27.7
2023-05-14T14:05:09.760Z,27.7
2023-05-14T14:06:10.992Z,27.8
2023-05-14T14:07:12.141Z,27.8
2023-05-14T14:09:25.250Z,27.8
2023-05-14T14:10:26.421Z,27.8
2023-05-14T14:11:27.598Z,27.6
2023-05-14T14:12:28.814Z,27.5
2023-05-14T14:13:30.155Z,27.4
2023-05-14T14:14:31.306Z,27.3
2023-05-14T14:15:32.466Z,27.2
2023-05-14T14:16:33.681Z,27.3
2023-05-14T14:17:34.876Z,27.3
2023-05-14T14:18:36.036Z,27.3
2023-05-14T14:19:37.282Z,27.4
2023-05-14T14:20:38.450Z,27.4
2023-05-14T14:21:39.632Z,27.5
2023-05-14T14:22:40.777Z,27.5
2023-05-14T14:23:41.974Z,27.5
2023-05-14T14:24:43.112Z,27.5
2023-05-14T14:25:44.282Z,27.5
2023-05-14T14:26:45.459Z,27.4
2023-05-14T14:27:47.453Z,27.4
2023-05-14T14:28:50.137Z,27.4
2023-05-14T14:29:51.290Z,27.3
2023-05-14T14:30:52.453Z,27.3
2023-05-14T14:31:53.665Z,27.3
2023-05-14T14:32:54.915Z,27.2
2023-05-14T14:33:56.205Z,27.2
2023-05-14T14:34:57.425Z,27.1
2023-05-14T14:35:58.594Z,27
2023-05-14T14:36:59.758Z,27
2023-05-14T14:38:00.929Z,27
2023-05-14T14:39:02.103Z,26.9
2023-05-14T14:40:03.267Z,26.9
2023-05-14T14:41:04.426Z,26.8
2023-05-14T14:42:05.610Z,26.8
2023-05-14T14:43:06.788Z,26.7
2023-05-14T14:44:08.018Z,26.6
2023-05-14T14:45:09.164Z,26.6
2023-05-14T14:46:10.493Z,26.6
2023-05-14T14:47:11.711Z,26.5
2023-05-14T14:48:12.884Z,26.5
2023-05-14T14:49:14.192Z,26.4
2023-05-14T14:50:15.352Z,26.4
2023-05-14T14:51:16.507Z,26.4
2023-05-14T14:52:22.508Z,26.3
2023-05-14T14:53:23.803Z,26.3
2023-05-14T14:54:24.938Z,26.3
2023-05-14T14:55:26.098Z,26.2
2023-05-14T14:56:27.266Z,26.2
2023-05-14T14:57:28.449Z,26.1
2023-05-14T14:58:29.648Z,26.1
2023-05-14T14:59:30.803Z,26
2023-05-14T15:00:31.953Z,26
2023-05-14T15:01:33.211Z,26
2023-05-14T15:02:34.853Z,25.9
2023-05-14T15:03:38.333Z,25.9
2023-05-14T15:04:39.847Z,25.9
2023-05-14T15:05:40.987Z,25.8
2023-05-14T15:06:42.152Z,25.8
2023-05-14T15:07:43.324Z,25.8
2023-05-14T15:08:44.485Z,25.7
2023-05-14T15:09:45.652Z,25.7
2023-05-14T15:10:46.808Z,25.6